< < Back
Terminal Aerodrome Forecast


Current Version              Previous Versions:   1  2  3  4  5  6  7  8  9  

Terminal Aerodrome Forecast

758
FTUS42 KGSP 190500
TAFHKY
TAF
KHKY 190535Z 1906/2006 03007KT 6SM -RA BR SCT025 OVC050
      TEMPO 1909/1912 3SM RA BR OVC020
     FM191200 02012G19KT 5SM -RA BR OVC035
     FM192300 04011KT P6SM VCSH OVC035
     FM200200 04009KT P6SM OVC035=

Latest METAR

574
SAUS70 KWBC 191700 RRD
MTRHKY
METAR KHKY 191653Z 02008KT 10SM -RA FEW041 OVC075 13/08 A3018 RMK AO2
SLP208 P0002 T01280083


USA.gov is the U.S. government's official web portal to all federal, state and local government web resources and services.